sensor_id;sensor_type;location;lat;lon;timestamp;temperature;humidity
15409;DHT22;7803;48.130;13.788;2022-11-15T00:02:33;22.10;98.20
15409;DHT22;7803;48.130;13.788;2022-11-15T00:05:37;22.10;98.20
15409;DHT22;7803;48.130;13.788;2022-11-15T00:08:39;22.10;98.20
15409;DHT22;7803;48.130;13.788;2022-11-15T00:11:41;22.10;98.20
15409;DHT22;7803;48.130;13.788;2022-11-15T00:14:43;22.10;98.20
15409;DHT22;7803;48.130;13.788;2022-11-15T00:17:48;22.10;98.20
15409;DHT22;7803;48.130;13.788;2022-11-15T00:20:52;22.10;98.20
15409;DHT22;7803;48.130;13.788;2022-11-15T00:23:54;22.10;98.20
15409;DHT22;7803;48.130;13.788;2022-11-15T00:26:56;22.00;98.20
15409;DHT22;7803;48.130;13.788;2022-11-15T00:29:59;22.10;98.60
15409;DHT22;7803;48.130;13.788;2022-11-15T00:33:02;22.10;98.20
15409;DHT22;7803;48.130;13.788;2022-11-15T00:36:08;22.00;98.10
15409;DHT22;7803;48.130;13.788;2022-11-15T00:39:11;22.00;98.10
15409;DHT22;7803;48.130;13.788;2022-11-15T00:42:13;22.00;98.20
15409;DHT22;7803;48.130;13.788;2022-11-15T00:45:15;22.00;98.20
15409;DHT22;7803;48.130;13.788;2022-11-15T00:48:17;22.00;98.20
15409;DHT22;7803;48.130;13.788;2022-11-15T00:51:21;22.00;98.10
15409;DHT22;7803;48.130;13.788;2022-11-15T00:54:23;22.00;98.10
15409;DHT22;7803;48.130;13.788;2022-11-15T00:57:25;22.00;98.10
15409;DHT22;7803;48.130;13.788;2022-11-15T01:00:27;22.00;98.10
15409;DHT22;7803;48.130;13.788;2022-11-15T01:03:32;22.00;98.00
15409;DHT22;7803;48.130;13.788;2022-11-15T01:06:35;22.00;98.00
15409;DHT22;7803;48.130;13.788;2022-11-15T01:09:37;22.00;98.00
15409;DHT22;7803;48.130;13.788;2022-11-15T01:12:39;22.00;98.00
15409;DHT22;7803;48.130;13.788;2022-11-15T01:15:42;22.00;98.00
15409;DHT22;7803;48.130;13.788;2022-11-15T01:18:44;22.00;98.00
15409;DHT22;7803;48.130;13.788;2022-11-15T01:21:50;21.90;98.00
15409;DHT22;7803;48.130;13.788;2022-11-15T01:24:52;21.90;98.00
15409;DHT22;7803;48.130;13.788;2022-11-15T01:27:54;21.90;98.00
15409;DHT22;7803;48.130;13.788;2022-11-15T01:30:58;21.90;98.00
15409;DHT22;7803;48.130;13.788;2022-11-15T01:34:00;21.90;98.00
15409;DHT22;7803;48.130;13.788;2022-11-15T01:37:03;21.90;98.00
15409;DHT22;7803;48.130;13.788;2022-11-15T01:40:06;21.90;98.00
15409;DHT22;7803;48.130;13.788;2022-11-15T01:43:22;21.90;97.90
15409;DHT22;7803;48.130;13.788;2022-11-15T01:46:29;21.90;98.00
15409;DHT22;7803;48.130;13.788;2022-11-15T01:49:33;21.90;98.00
15409;DHT22;7803;48.130;13.788;2022-11-15T01:52:39;21.80;97.90
15409;DHT22;7803;48.130;13.788;2022-11-15T01:55:42;21.90;98.00
15409;DHT22;7803;48.130;13.788;2022-11-15T01:58:44;21.80;97.90
15409;DHT22;7803;48.130;13.788;2022-11-15T02:01:47;21.90;98.00
15409;DHT22;7803;48.130;13.788;2022-11-15T02:04:49;21.80;98.00
15409;DHT22;7803;48.130;13.788;2022-11-15T02:07:53;21.80;98.00
15409;DHT22;7803;48.130;13.788;2022-11-15T02:10:55;21.80;97.90
15409;DHT22;7803;48.130;13.788;2022-11-15T02:13:58;21.80;97.90
15409;DHT22;7803;48.130;13.788;2022-11-15T02:17:12;21.80;97.80
15409;DHT22;7803;48.130;13.788;2022-11-15T02:20:35;21.80;97.90
15409;DHT22;7803;48.130;13.788;2022-11-15T02:27:59;21.80;97.80
15409;DHT22;7803;48.130;13.788;2022-11-15T02:31:11;21.80;97.80
15409;DHT22;7803;48.130;13.788;2022-11-15T02:34:23;21.80;97.90
15409;DHT22;7803;48.130;13.788;2022-11-15T02:37:37;21.80;97.90
15409;DHT22;7803;48.130;13.788;2022-11-15T02:40:46;21.80;97.80
15409;DHT22;7803;48.130;13.788;2022-11-15T02:43:56;21.70;98.00
15409;DHT22;7803;48.130;13.788;2022-11-15T02:47:03;21.70;98.00
15409;DHT22;7803;48.130;13.788;2022-11-15T02:50:19;21.70;97.90
15409;DHT22;7803;48.130;13.788;2022-11-15T02:53:24;21.70;97.80
15409;DHT22;7803;48.130;13.788;2022-11-15T02:56:26;21.70;97.80
15409;DHT22;7803;48.130;13.788;2022-11-15T02:59:43;21.70;97.90
15409;DHT22;7803;48.130;13.788;2022-11-15T03:02:59;21.70;97.90
15409;DHT22;7803;48.130;13.788;2022-11-15T03:06:14;21.70;97.90
15409;DHT22;7803;48.130;13.788;2022-11-15T03:09:28;21.70;97.80
15409;DHT22;7803;48.130;13.788;2022-11-15T03:12:36;21.70;97.80
15409;DHT22;7803;48.130;13.788;2022-11-15T03:15:43;21.70;97.90
15409;DHT22;7803;48.130;13.788;2022-11-15T03:18:52;21.70;97.90
15409;DHT22;7803;48.130;13.788;2022-11-15T03:21:56;21.70;97.90
15409;DHT22;7803;48.130;13.788;2022-11-15T03:25:03;21.70;97.90
15409;DHT22;7803;48.130;13.788;2022-11-15T03:28:07;21.70;97.80
15409;DHT22;7803;48.130;13.788;2022-11-15T03:31:12;21.70;97.80
15409;DHT22;7803;48.130;13.788;2022-11-15T03:34:38;21.70;97.80
15409;DHT22;7803;48.130;13.788;2022-11-15T03:37:45;21.70;97.70
15409;DHT22;7803;48.130;13.788;2022-11-15T03:40:53;21.70;97.70
15409;DHT22;7803;48.130;13.788;2022-11-15T03:43:59;21.70;97.70
15409;DHT22;7803;48.130;13.788;2022-11-15T03:47:09;21.60;97.80
15409;DHT22;7803;48.130;13.788;2022-11-15T03:50:15;21.60;97.70
15409;DHT22;7803;48.130;13.788;2022-11-15T03:53:17;21.60;97.70
15409;DHT22;7803;48.130;13.788;2022-11-15T03:56:19;21.60;97.70
15409;DHT22;7803;48.130;13.788;2022-11-15T03:59:21;21.60;97.80
15409;DHT22;7803;48.130;13.788;2022-11-15T04:02:23;21.60;97.80
15409;DHT22;7803;48.130;13.788;2022-11-15T04:05:27;21.60;97.80
15409;DHT22;7803;48.130;13.788;2022-11-15T04:08:29;21.60;97.70
15409;DHT22;7803;48.130;13.788;2022-11-15T04:11:31;21.60;97.70
15409;DHT22;7803;48.130;13.788;2022-11-15T04:14:33;21.60;97.60
15409;DHT22;7803;48.130;13.788;2022-11-15T04:17:39;21.60;97.60
15409;DHT22;7803;48.130;13.788;2022-11-15T04:20:43;21.60;97.60
15409;DHT22;7803;48.130;13.788;2022-11-15T04:24:03;21.60;97.60
15409;DHT22;7803;48.130;13.788;2022-11-15T04:27:14;21.60;97.50
15409;DHT22;7803;48.130;13.788;2022-11-15T04:30:16;21.60;97.50
15409;DHT22;7803;48.130;13.788;2022-11-15T04:33:19;21.50;97.40
15409;DHT22;7803;48.130;13.788;2022-11-15T04:36:23;21.60;97.50
15409;DHT22;7803;48.130;13.788;2022-11-15T04:39:43;21.60;97.40
15409;DHT22;7803;48.130;13.788;2022-11-15T04:42:45;21.60;97.40
15409;DHT22;7803;48.130;13.788;2022-11-15T04:45:47;21.60;97.30
15409;DHT22;7803;48.130;13.788;2022-11-15T04:48:49;21.60;97.20
15409;DHT22;7803;48.130;13.788;2022-11-15T04:51:52;21.70;97.20
15409;DHT22;7803;48.130;13.788;2022-11-15T04:54:54;21.70;97.10
15409;DHT22;7803;48.130;13.788;2022-11-15T04:58:00;21.70;97.00
15409;DHT22;7803;48.130;13.788;2022-11-15T05:01:06;21.70;97.00
15409;DHT22;7803;48.130;13.788;2022-11-15T05:04:09;21.70;96.90
15409;DHT22;7803;48.130;13.788;2022-11-15T05:07:24;21.70;96.90
15409;DHT22;7803;48.130;13.788;2022-11-15T05:10:26;21.80;96.90
15409;DHT22;7803;48.130;13.788;2022-11-15T05:13:28;21.80;96.80
15409;DHT22;7803;48.130;13.788;2022-11-15T05:16:30;21.80;96.80
15409;DHT22;7803;48.130;13.788;2022-11-15T05:19:32;21.80;96.80
15409;DHT22;7803;48.130;13.788;2022-11-15T05:22:36;21.80;96.70
15409;DHT22;7803;48.130;13.788;2022-11-15T05:25:38;21.80;96.70
15409;DHT22;7803;48.130;13.788;2022-11-15T05:28:40;21.80;96.70
15409;DHT22;7803;48.130;13.788;2022-11-15T05:31:42;21.80;96.60
15409;DHT22;7803;48.130;13.788;2022-11-15T05:34:45;21.90;96.60
15409;DHT22;7803;48.130;13.788;2022-11-15T05:37:49;21.90;96.50
15409;DHT22;7803;48.130;13.788;2022-11-15T05:40:52;21.90;96.50
15409;DHT22;7803;48.130;13.788;2022-11-15T05:43:54;21.90;96.50
15409;DHT22;7803;48.130;13.788;2022-11-15T05:46:56;21.90;96.40
15409;DHT22;7803;48.130;13.788;2022-11-15T05:49:59;21.90;96.40
15409;DHT22;7803;48.130;13.788;2022-11-15T05:53:03;21.90;96.40
15409;DHT22;7803;48.130;13.788;2022-11-15T05:56:06;21.90;96.30
15409;DHT22;7803;48.130;13.788;2022-11-15T05:59:09;21.90;96.30
15409;DHT22;7803;48.130;13.788;2022-11-15T06:02:11;21.90;96.30
15409;DHT22;7803;48.130;13.788;2022-11-15T06:05:13;21.90;96.20
15409;DHT22;7803;48.130;13.788;2022-11-15T06:08:17;21.90;96.20
15409;DHT22;7803;48.130;13.788;2022-11-15T06:11:19;21.90;96.20
15409;DHT22;7803;48.130;13.788;2022-11-15T06:14:21;22.00;96.20
15409;DHT22;7803;48.130;13.788;2022-11-15T06:17:23;22.00;96.10
15409;DHT22;7803;48.130;13.788;2022-11-15T06:20:25;22.00;96.10
15409;DHT22;7803;48.130;13.788;2022-11-15T06:23:31;22.00;96.00
15409;DHT22;7803;48.130;13.788;2022-11-15T06:26:34;22.00;96.00
15409;DHT22;7803;48.130;13.788;2022-11-15T06:29:36;22.00;96.00
15409;DHT22;7803;48.130;13.788;2022-11-15T06:32:37;22.00;96.00
15409;DHT22;7803;48.130;13.788;2022-11-15T06:35:39;22.00;96.00
15409;DHT22;7803;48.130;13.788;2022-11-15T06:42:43;22.00;92.90
15409;DHT22;7803;48.130;13.788;2022-11-15T06:45:54;22.00;92.70
15409;DHT22;7803;48.130;13.788;2022-11-15T06:48:56;22.00;92.60
15409;DHT22;7803;48.130;13.788;2022-11-15T06:51:58;22.00;92.50
15409;DHT22;7803;48.130;13.788;2022-11-15T06:55:00;22.10;92.50
15409;DHT22;7803;48.130;13.788;2022-11-15T06:58:03;22.00;92.60
15409;DHT22;7803;48.130;13.788;2022-11-15T07:01:07;22.00;92.90
15409;DHT22;7803;48.130;13.788;2022-11-15T07:04:09;22.00;93.40
15409;DHT22;7803;48.130;13.788;2022-11-15T07:07:11;22.10;94.00
15409;DHT22;7803;48.130;13.788;2022-11-15T07:10:14;22.10;94.10
15409;DHT22;7803;48.130;13.788;2022-11-15T07:13:17;22.10;94.40
15409;DHT22;7803;48.130;13.788;2022-11-15T07:16:20;22.10;94.50
15409;DHT22;7803;48.130;13.788;2022-11-15T07:19:23;22.10;95.00
15409;DHT22;7803;48.130;13.788;2022-11-15T07:22:25;22.20;94.60
15409;DHT22;7803;48.130;13.788;2022-11-15T07:25:27;22.20;94.60
15409;DHT22;7803;48.130;13.788;2022-11-15T07:28:30;22.20;94.70
15409;DHT22;7803;48.130;13.788;2022-11-15T07:31:32;22.20;94.70
15409;DHT22;7803;48.130;13.788;2022-11-15T07:34:34;22.20;94.80
15409;DHT22;7803;48.130;13.788;2022-11-15T07:37:36;22.20;94.80
15409;DHT22;7803;48.130;13.788;2022-11-15T07:40:38;22.20;94.80
15409;DHT22;7803;48.130;13.788;2022-11-15T07:43:42;22.20;94.80
15409;DHT22;7803;48.130;13.788;2022-11-15T07:46:44;22.20;94.80
15409;DHT22;7803;48.130;13.788;2022-11-15T07:49:46;22.30;94.80
15409;DHT22;7803;48.130;13.788;2022-11-15T07:52:53;22.20;94.80
15409;DHT22;7803;48.130;13.788;2022-11-15T07:55:55;22.20;94.80
15409;DHT22;7803;48.130;13.788;2022-11-15T07:58:59;22.30;94.90
15409;DHT22;7803;48.130;13.788;2022-11-15T08:02:01;22.30;95.30
15409;DHT22;7803;48.130;13.788;2022-11-15T08:05:06;22.30;94.90
15409;DHT22;7803;48.130;13.788;2022-11-15T08:08:09;22.30;94.90
15409;DHT22;7803;48.130;13.788;2022-11-15T08:11:11;22.30;95.00
15409;DHT22;7803;48.130;13.788;2022-11-15T08:14:15;22.30;95.00
15409;DHT22;7803;48.130;13.788;2022-11-15T08:17:17;22.30;95.00
15409;DHT22;7803;48.130;13.788;2022-11-15T08:20:19;22.30;95.10
15409;DHT22;7803;48.130;13.788;2022-11-15T08:23:21;22.30;95.10
15409;DHT22;7803;48.130;13.788;2022-11-15T08:26:23;22.30;95.20
15409;DHT22;7803;48.130;13.788;2022-11-15T08:29:31;22.30;95.20
15409;DHT22;7803;48.130;13.788;2022-11-15T08:32:33;22.30;95.20
15409;DHT22;7803;48.130;13.788;2022-11-15T08:35:35;22.30;95.20
15409;DHT22;7803;48.130;13.788;2022-11-15T08:38:37;22.30;95.30
15409;DHT22;7803;48.130;13.788;2022-11-15T08:41:39;22.20;95.30
15409;DHT22;7803;48.130;13.788;2022-11-15T08:44:42;22.20;95.30
15409;DHT22;7803;48.130;13.788;2022-11-15T08:47:44;22.20;95.30
15409;DHT22;7803;48.130;13.788;2022-11-15T08:50:46;22.30;95.30
15409;DHT22;7803;48.130;13.788;2022-11-15T08:53:48;22.30;95.40
15409;DHT22;7803;48.130;13.788;2022-11-15T08:56:50;22.20;95.40
15409;DHT22;7803;48.130;13.788;2022-11-15T08:59:54;22.30;95.40
15409;DHT22;7803;48.130;13.788;2022-11-15T09:02:56;22.20;95.40
15409;DHT22;7803;48.130;13.788;2022-11-15T09:05:59;22.20;95.50
15409;DHT22;7803;48.130;13.788;2022-11-15T09:09:01;22.20;95.50
15409;DHT22;7803;48.130;13.788;2022-11-15T09:12:04;22.20;95.50
15409;DHT22;7803;48.130;13.788;2022-11-15T09:15:09;22.20;95.50
15409;DHT22;7803;48.130;13.788;2022-11-15T09:18:11;22.20;95.50
15409;DHT22;7803;48.130;13.788;2022-11-15T09:21:13;22.30;95.60
15409;DHT22;7803;48.130;13.788;2022-11-15T09:24:16;22.30;95.20
15409;DHT22;7803;48.130;13.788;2022-11-15T09:27:18;22.30;95.00
15409;DHT22;7803;48.130;13.788;2022-11-15T09:30:21;22.30;95.00
15409;DHT22;7803;48.130;13.788;2022-11-15T09:33:24;22.30;95.00
15409;DHT22;7803;48.130;13.788;2022-11-15T09:36:26;22.30;95.00
15409;DHT22;7803;48.130;13.788;2022-11-15T09:39:28;22.30;95.00
15409;DHT22;7803;48.130;13.788;2022-11-15T09:42:45;22.30;95.00
15409;DHT22;7803;48.130;13.788;2022-11-15T09:45:57;22.30;95.00
15409;DHT22;7803;48.130;13.788;2022-11-15T09:49:04;22.30;95.10
15409;DHT22;7803;48.130;13.788;2022-11-15T09:52:07;22.30;95.10
15409;DHT22;7803;48.130;13.788;2022-11-15T09:55:11;22.40;95.10
15409;DHT22;7803;48.130;13.788;2022-11-15T09:58:21;22.40;95.10
15409;DHT22;7803;48.130;13.788;2022-11-15T10:01:36;22.40;95.10
15409;DHT22;7803;48.130;13.788;2022-11-15T10:04:41;22.30;95.00
15409;DHT22;7803;48.130;13.788;2022-11-15T10:07:48;22.40;95.00
15409;DHT22;7803;48.130;13.788;2022-11-15T10:10:55;22.40;95.00
15409;DHT22;7803;48.130;13.788;2022-11-15T10:14:01;22.40;95.00
15409;DHT22;7803;48.130;13.788;2022-11-15T10:17:31;22.40;95.00
15409;DHT22;7803;48.130;13.788;2022-11-15T10:20:45;22.40;95.00
15409;DHT22;7803;48.130;13.788;2022-11-15T10:23:47;22.40;95.00
15409;DHT22;7803;48.130;13.788;2022-11-15T10:26:50;22.40;95.10
15409;DHT22;7803;48.130;13.788;2022-11-15T10:29:52;22.40;95.10
15409;DHT22;7803;48.130;13.788;2022-11-15T10:32:55;22.40;95.10
15409;DHT22;7803;48.130;13.788;2022-11-15T10:36:17;22.40;95.20
15409;DHT22;7803;48.130;13.788;2022-11-15T10:39:20;22.40;95.20
15409;DHT22;7803;48.130;13.788;2022-11-15T10:42:26;22.50;95.20
15409;DHT22;7803;48.130;13.788;2022-11-15T10:45:30;22.40;95.40
15409;DHT22;7803;48.130;13.788;2022-11-15T10:48:34;22.50;95.40
15409;DHT22;7803;48.130;13.788;2022-11-15T10:51:42;22.40;95.40
15409;DHT22;7803;48.130;13.788;2022-11-15T10:54:47;22.40;95.50
15409;DHT22;7803;48.130;13.788;2022-11-15T10:57:52;22.40;95.60
15409;DHT22;7803;48.130;13.788;2022-11-15T11:00:54;22.50;95.70
15409;DHT22;7803;48.130;13.788;2022-11-15T11:04:02;22.40;95.80
15409;DHT22;7803;48.130;13.788;2022-11-15T11:07:20;22.40;95.80
15409;DHT22;7803;48.130;13.788;2022-11-15T11:10:23;22.50;96.00
15409;DHT22;7803;48.130;13.788;2022-11-15T11:13:27;22.50;96.30
15409;DHT22;7803;48.130;13.788;2022-11-15T11:16:41;22.50;96.50
15409;DHT22;7803;48.130;13.788;2022-11-15T11:19:56;22.50;96.70
15409;DHT22;7803;48.130;13.788;2022-11-15T11:23:13;22.60;99.70
15409;DHT22;7803;48.130;13.788;2022-11-15T11:26:35;22.60;98.00
15409;DHT22;7803;48.130;13.788;2022-11-15T11:29:49;22.60;99.90
15409;DHT22;7803;48.130;13.788;2022-11-15T11:33:12;22.70;99.90
15409;DHT22;7803;48.130;13.788;2022-11-15T11:36:24;22.80;99.90
15409;DHT22;7803;48.130;13.788;2022-11-15T11:39:33;22.90;99.20
15409;DHT22;7803;48.130;13.788;2022-11-15T11:42:44;23.20;97.90
15409;DHT22;7803;48.130;13.788;2022-11-15T11:46:08;23.50;96.50
15409;DHT22;7803;48.130;13.788;2022-11-15T11:49:16;23.60;95.60
15409;DHT22;7803;48.130;13.788;2022-11-15T11:52:26;23.70;95.20
15409;DHT22;7803;48.130;13.788;2022-11-15T11:55:32;23.70;94.80
15409;DHT22;7803;48.130;13.788;2022-11-15T11:58:40;23.70;95.10
15409;DHT22;7803;48.130;13.788;2022-11-15T12:01:44;23.60;94.90
15409;DHT22;7803;48.130;13.788;2022-11-15T12:04:49;23.40;90.60
15409;DHT22;7803;48.130;13.788;2022-11-15T12:07:59;23.30;81.60
15409;DHT22;7803;48.130;13.788;2022-11-15T12:11:09;23.00;80.20
15409;DHT22;7803;48.130;13.788;2022-11-15T12:14:24;22.80;79.10
15409;DHT22;7803;48.130;13.788;2022-11-15T12:17:30;22.70;81.10
15409;DHT22;7803;48.130;13.788;2022-11-15T12:20:35;22.70;82.70
15409;DHT22;7803;48.130;13.788;2022-11-15T12:23:46;22.70;84.10
15409;DHT22;7803;48.130;13.788;2022-11-15T12:26:52;22.60;85.90
15409;DHT22;7803;48.130;13.788;2022-11-15T12:29:59;22.60;86.10
15409;DHT22;7803;48.130;13.788;2022-11-15T12:33:03;22.60;87.00
15409;DHT22;7803;48.130;13.788;2022-11-15T12:36:08;22.60;87.70
15409;DHT22;7803;48.130;13.788;2022-11-15T12:39:13;22.60;88.30
15409;DHT22;7803;48.130;13.788;2022-11-15T12:42:36;22.60;89.00
15409;DHT22;7803;48.130;13.788;2022-11-15T12:45:42;22.60;89.70
15409;DHT22;7803;48.130;13.788;2022-11-15T12:48:55;22.60;90.00
15409;DHT22;7803;48.130;13.788;2022-11-15T12:52:08;22.60;90.30
15409;DHT22;7803;48.130;13.788;2022-11-15T12:55:32;22.60;90.50
15409;DHT22;7803;48.130;13.788;2022-11-15T12:58:42;22.60;90.80
15409;DHT22;7803;48.130;13.788;2022-11-15T13:02:17;22.60;91.00
15409;DHT22;7803;48.130;13.788;2022-11-15T13:08:54;22.60;91.40
15409;DHT22;7803;48.130;13.788;2022-11-15T13:11:59;22.60;91.50
15409;DHT22;7803;48.130;13.788;2022-11-15T13:19:02;22.60;91.70
15409;DHT22;7803;48.130;13.788;2022-11-15T13:22:09;22.60;91.90
15409;DHT22;7803;48.130;13.788;2022-11-15T13:25:53;22.60;92.00
15409;DHT22;7803;48.130;13.788;2022-11-15T13:28:56;22.60;92.10
15409;DHT22;7803;48.130;13.788;2022-11-15T13:31:59;22.60;92.20
15409;DHT22;7803;48.130;13.788;2022-11-15T13:35:07;22.60;92.30
15409;DHT22;7803;48.130;13.788;2022-11-15T13:38:18;22.60;92.40
15409;DHT22;7803;48.130;13.788;2022-11-15T13:41:22;22.60;92.50
15409;DHT22;7803;48.130;13.788;2022-11-15T13:44:26;22.60;92.60
15409;DHT22;7803;48.130;13.788;2022-11-15T13:47:29;22.70;92.70
15409;DHT22;7803;48.130;13.788;2022-11-15T13:50:36;22.70;92.80
15409;DHT22;7803;48.130;13.788;2022-11-15T13:53:43;22.60;92.80
15409;DHT22;7803;48.130;13.788;2022-11-15T13:56:52;22.70;92.90
15409;DHT22;7803;48.130;13.788;2022-11-15T13:59:59;22.70;92.90
15409;DHT22;7803;48.130;13.788;2022-11-15T14:03:11;22.70;93.00
15409;DHT22;7803;48.130;13.788;2022-11-15T14:06:17;22.60;93.00
15409;DHT22;7803;48.130;13.788;2022-11-15T14:09:30;22.70;93.10
15409;DHT22;7803;48.130;13.788;2022-11-15T14:12:34;22.60;93.20
15409;DHT22;7803;48.130;13.788;2022-11-15T14:15:38;22.70;93.20
15409;DHT22;7803;48.130;13.788;2022-11-15T14:18:43;22.70;93.30
15409;DHT22;7803;48.130;13.788;2022-11-15T14:22:09;22.60;93.30
15409;DHT22;7803;48.130;13.788;2022-11-15T14:25:17;22.70;93.40
15409;DHT22;7803;48.130;13.788;2022-11-15T14:28:29;22.70;93.40
15409;DHT22;7803;48.130;13.788;2022-11-15T14:31:33;22.70;93.50
15409;DHT22;7803;48.130;13.788;2022-11-15T14:34:35;22.70;93.50
15409;DHT22;7803;48.130;13.788;2022-11-15T14:37:39;22.70;93.50
15409;DHT22;7803;48.130;13.788;2022-11-15T14:40:41;22.70;93.50
15409;DHT22;7803;48.130;13.788;2022-11-15T14:43:43;22.70;93.50
15409;DHT22;7803;48.130;13.788;2022-11-15T14:46:45;22.70;93.60
15409;DHT22;7803;48.130;13.788;2022-11-15T14:49:48;22.70;93.60
15409;DHT22;7803;48.130;13.788;2022-11-15T14:52:52;22.70;93.60
15409;DHT22;7803;48.130;13.788;2022-11-15T14:55:54;22.70;93.70
15409;DHT22;7803;48.130;13.788;2022-11-15T14:58:56;22.70;93.70
15409;DHT22;7803;48.130;13.788;2022-11-15T15:01:58;22.70;93.80
15409;DHT22;7803;48.130;13.788;2022-11-15T15:05:00;22.70;93.80
15409;DHT22;7803;48.130;13.788;2022-11-15T15:08:06;22.70;93.80
15409;DHT22;7803;48.130;13.788;2022-11-15T15:11:11;22.60;93.90
15409;DHT22;7803;48.130;13.788;2022-11-15T15:14:15;22.70;93.90
15409;DHT22;7803;48.130;13.788;2022-11-15T15:17:17;22.70;93.90
15409;DHT22;7803;48.130;13.788;2022-11-15T15:20:19;22.70;93.90
15409;DHT22;7803;48.130;13.788;2022-11-15T15:23:22;22.70;95.50
15409;DHT22;7803;48.130;13.788;2022-11-15T15:26:26;22.70;94.60
15409;DHT22;7803;48.130;13.788;2022-11-15T15:29:28;22.70;94.60
15409;DHT22;7803;48.130;13.788;2022-11-15T15:32:30;22.70;94.60
15409;DHT22;7803;48.130;13.788;2022-11-15T15:35:33;22.70;94.50
15409;DHT22;7803;48.130;13.788;2022-11-15T15:38:37;22.70;94.60
15409;DHT22;7803;48.130;13.788;2022-11-15T15:41:40;22.70;94.60
15409;DHT22;7803;48.130;13.788;2022-11-15T15:44:42;22.70;94.60
15409;DHT22;7803;48.130;13.788;2022-11-15T15:47:44;22.70;94.70
15409;DHT22;7803;48.130;13.788;2022-11-15T15:50:47;22.70;94.70
15409;DHT22;7803;48.130;13.788;2022-11-15T15:53:51;22.70;94.70
15409;DHT22;7803;48.130;13.788;2022-11-15T15:56:57;22.70;94.70
15409;DHT22;7803;48.130;13.788;2022-11-15T15:59:59;22.80;94.80
15409;DHT22;7803;48.130;13.788;2022-11-15T16:03:01;22.70;94.70
15409;DHT22;7803;48.130;13.788;2022-11-15T16:06:03;22.70;94.70
15409;DHT22;7803;48.130;13.788;2022-11-15T16:09:09;22.70;94.60
15409;DHT22;7803;48.130;13.788;2022-11-15T16:12:12;22.70;94.60
15409;DHT22;7803;48.130;13.788;2022-11-15T16:15:15;22.80;95.00
15409;DHT22;7803;48.130;13.788;2022-11-15T16:18:17;22.80;95.00
15409;DHT22;7803;48.130;13.788;2022-11-15T16:21:20;22.70;94.60
15409;DHT22;7803;48.130;13.788;2022-11-15T16:24:23;22.70;94.60
15409;DHT22;7803;48.130;13.788;2022-11-15T16:27:26;22.70;94.60
15409;DHT22;7803;48.130;13.788;2022-11-15T16:30:28;22.70;94.60
15409;DHT22;7803;48.130;13.788;2022-11-15T16:33:30;22.70;94.50
15409;DHT22;7803;48.130;13.788;2022-11-15T16:36:33;22.80;94.90
15409;DHT22;7803;48.130;13.788;2022-11-15T16:39:37;22.70;94.80
15409;DHT22;7803;48.130;13.788;2022-11-15T16:42:39;22.70;94.40
15409;DHT22;7803;48.130;13.788;2022-11-15T16:45:41;22.70;94.40
15409;DHT22;7803;48.130;13.788;2022-11-15T16:48:44;22.80;94.40
15409;DHT22;7803;48.130;13.788;2022-11-15T16:51:46;22.80;94.50
15409;DHT22;7803;48.130;13.788;2022-11-15T16:54:50;22.80;94.40
15409;DHT22;7803;48.130;13.788;2022-11-15T16:57:52;22.80;94.40
15409;DHT22;7803;48.130;13.788;2022-11-15T17:00:55;22.80;94.40
15409;DHT22;7803;48.130;13.788;2022-11-15T17:03:58;22.80;94.40
15409;DHT22;7803;48.130;13.788;2022-11-15T17:07:11;22.80;94.40
15409;DHT22;7803;48.130;13.788;2022-11-15T17:10:16;22.80;94.30
15409;DHT22;7803;48.130;13.788;2022-11-15T17:13:18;22.80;94.30
15409;DHT22;7803;48.130;13.788;2022-11-15T17:16:20;22.80;94.20
15409;DHT22;7803;48.130;13.788;2022-11-15T17:19:23;22.80;94.20
15409;DHT22;7803;48.130;13.788;2022-11-15T17:22:26;22.80;94.20
15409;DHT22;7803;48.130;13.788;2022-11-15T17:25:29;22.80;94.20
15409;DHT22;7803;48.130;13.788;2022-11-15T17:28:33;22.80;94.20
15409;DHT22;7803;48.130;13.788;2022-11-15T17:31:36;22.80;94.10
15409;DHT22;7803;48.130;13.788;2022-11-15T17:34:39;22.80;94.20
15409;DHT22;7803;48.130;13.788;2022-11-15T17:37:41;22.80;94.20
15409;DHT22;7803;48.130;13.788;2022-11-15T17:40:59;22.80;94.20
15409;DHT22;7803;48.130;13.788;2022-11-15T17:44:02;22.80;94.20
15409;DHT22;7803;48.130;13.788;2022-11-15T17:47:04;22.80;94.20
15409;DHT22;7803;48.130;13.788;2022-11-15T17:50:08;22.80;94.30
15409;DHT22;7803;48.130;13.788;2022-11-15T17:53:11;22.80;94.30
15409;DHT22;7803;48.130;13.788;2022-11-15T17:56:16;22.80;94.20
15409;DHT22;7803;48.130;13.788;2022-11-15T17:59:19;22.80;94.20
15409;DHT22;7803;48.130;13.788;2022-11-15T18:02:21;22.80;94.20
15409;DHT22;7803;48.130;13.788;2022-11-15T18:05:23;22.80;94.20
15409;DHT22;7803;48.130;13.788;2022-11-15T18:08:26;22.80;94.20
15409;DHT22;7803;48.130;13.788;2022-11-15T18:11:32;22.70;94.10
15409;DHT22;7803;48.130;13.788;2022-11-15T18:14:35;22.70;94.10
15409;DHT22;7803;48.130;13.788;2022-11-15T18:17:39;22.70;94.10
15409;DHT22;7803;48.130;13.788;2022-11-15T18:20:41;22.80;94.10
15409;DHT22;7803;48.130;13.788;2022-11-15T18:23:43;22.70;94.10
15409;DHT22;7803;48.130;13.788;2022-11-15T18:26:47;22.70;94.10
15409;DHT22;7803;48.130;13.788;2022-11-15T18:29:51;22.70;94.10
15409;DHT22;7803;48.130;13.788;2022-11-15T18:32:54;22.70;94.10
15409;DHT22;7803;48.130;13.788;2022-11-15T18:36:08;22.70;94.10
15409;DHT22;7803;48.130;13.788;2022-11-15T18:39:11;22.80;94.00
15409;DHT22;7803;48.130;13.788;2022-11-15T18:42:17;22.70;94.00
15409;DHT22;7803;48.130;13.788;2022-11-15T18:45:20;22.80;94.00
15409;DHT22;7803;48.130;13.788;2022-11-15T18:48:23;22.70;94.00
15409;DHT22;7803;48.130;13.788;2022-11-15T18:51:28;22.80;94.00
15409;DHT22;7803;48.130;13.788;2022-11-15T18:54:32;22.70;94.00
15409;DHT22;7803;48.130;13.788;2022-11-15T18:57:38;22.70;94.00
15409;DHT22;7803;48.130;13.788;2022-11-15T19:00:41;22.70;94.00
15409;DHT22;7803;48.130;13.788;2022-11-15T19:03:45;22.70;94.00
15409;DHT22;7803;48.130;13.788;2022-11-15T19:06:48;22.70;94.00
15409;DHT22;7803;48.130;13.788;2022-11-15T19:09:51;22.70;94.00
15409;DHT22;7803;48.130;13.788;2022-11-15T19:12:55;22.70;94.00
15409;DHT22;7803;48.130;13.788;2022-11-15T19:15:58;22.70;94.00
15409;DHT22;7803;48.130;13.788;2022-11-15T19:19:05;22.70;93.90
15409;DHT22;7803;48.130;13.788;2022-11-15T19:22:08;22.70;93.90
15409;DHT22;7803;48.130;13.788;2022-11-15T19:25:11;22.70;93.90
15409;DHT22;7803;48.130;13.788;2022-11-15T19:28:16;22.70;93.90
15409;DHT22;7803;48.130;13.788;2022-11-15T19:31:19;22.70;93.90
15409;DHT22;7803;48.130;13.788;2022-11-15T19:34:23;22.70;93.90
15409;DHT22;7803;48.130;13.788;2022-11-15T19:37:27;22.70;93.90
15409;DHT22;7803;48.130;13.788;2022-11-15T19:40:31;22.70;93.90
15409;DHT22;7803;48.130;13.788;2022-11-15T19:43:35;22.70;93.90
15409;DHT22;7803;48.130;13.788;2022-11-15T19:46:38;22.70;93.90